createdAt,value
2023-04-24T00:04:56.157Z,4.30
2023-04-24T00:07:58.227Z,5.30
2023-04-24T00:11:00.386Z,4.70
2023-04-24T00:14:03.292Z,4.40
2023-04-24T00:17:05.660Z,4.70
2023-04-24T00:20:11.449Z,5.00
2023-04-24T00:23:13.824Z,8.70
2023-04-24T00:26:17.356Z,4.90
2023-04-24T00:29:19.390Z,3.60
2023-04-24T00:32:22.709Z,4.40
2023-04-24T00:35:26.039Z,5.60
2023-04-24T00:38:28.223Z,4.90
2023-04-24T00:41:32.115Z,5.20
2023-04-24T00:44:36.396Z,4.20
2023-04-24T00:47:39.716Z,5.40
2023-04-24T00:50:44.827Z,3.20
2023-04-24T00:53:47.087Z,7.10
2023-04-24T00:56:49.775Z,3.50
2023-04-24T00:59:52.767Z,6.00
2023-04-24T01:02:55.631Z,5.20
2023-04-24T01:05:58.069Z,5.40
2023-04-24T01:09:01.573Z,4.50
2023-04-24T01:12:07.933Z,4.10
2023-04-24T01:15:12.445Z,5.00
2023-04-24T01:18:16.165Z,4.20
2023-04-24T01:21:21.793Z,6.20
2023-04-24T01:24:25.664Z,6.30
2023-04-24T01:27:27.870Z,5.10
2023-04-24T01:30:30.667Z,7.80
2023-04-24T01:33:34.940Z,3.70
2023-04-24T01:36:37.579Z,4.50
2023-04-24T01:39:39.816Z,6.50
2023-04-24T01:42:42.941Z,7.60
2023-04-24T01:45:46.621Z,5.00
2023-04-24T01:48:52.642Z,4.30
2023-04-24T01:51:55.712Z,8.10
2023-04-24T01:55:00.257Z,3.60
2023-04-24T01:58:03.405Z,5.10
2023-04-24T02:05:13.502Z,6.00
2023-04-24T02:08:16.468Z,5.90
2023-04-24T02:11:19.375Z,6.80
2023-04-24T02:14:22.948Z,4.60
2023-04-24T02:17:26.489Z,5.60
2023-04-24T02:20:29.316Z,7.00
2023-04-24T02:23:32.472Z,6.00
2023-04-24T02:26:34.373Z,4.60
2023-04-24T02:29:36.351Z,4.30
2023-04-24T02:32:41.307Z,5.80
2023-04-24T02:35:48.093Z,5.40
2023-04-24T02:38:50.392Z,5.70
2023-04-24T02:41:52.465Z,3.80
2023-04-24T02:44:56.233Z,3.20
2023-04-24T02:48:01.110Z,3.10
2023-04-24T02:51:04.550Z,6.30
2023-04-24T02:54:10.551Z,5.20
2023-04-24T02:57:12.489Z,4.80
2023-04-24T03:00:21.645Z,4.80
2023-04-24T03:03:25.842Z,5.30
2023-04-24T03:06:29.171Z,3.50
2023-04-24T03:09:31.323Z,6.90
2023-04-24T03:12:35.392Z,5.70
2023-04-24T03:15:38.759Z,5.70
2023-04-24T03:18:42.158Z,4.50
2023-04-24T03:21:45.654Z,5.30
2023-04-24T03:24:49.231Z,5.10
2023-04-24T03:27:56.242Z,6.40
2023-04-24T03:31:16.656Z,12.00
2023-04-24T03:34:18.714Z,4.90
2023-04-24T03:37:24.546Z,9.40
2023-04-24T03:40:36.332Z,9.00
2023-04-24T03:43:40.046Z,8.00
2023-04-24T03:46:42.090Z,11.30
2023-04-24T03:49:45.154Z,6.10
2023-04-24T03:52:49.208Z,6.80
2023-04-24T03:55:59.340Z,8.40
2023-04-24T03:59:04.506Z,9.70
2023-04-24T04:05:13.778Z,7.20
2023-04-24T04:08:18.392Z,7.00
2023-04-24T04:11:21.633Z,6.10
2023-04-24T04:14:25.383Z,8.20
2023-04-24T04:17:28.331Z,8.70
2023-04-24T04:20:30.758Z,7.60
2023-04-24T04:23:33.486Z,9.60
2023-04-24T04:26:47.761Z,11.10
2023-04-24T04:29:57.770Z,11.80
2023-04-24T04:33:01.102Z,14.70
2023-04-24T04:36:04.391Z,12.20
2023-04-24T04:39:08.380Z,11.00
2023-04-24T04:42:24.380Z,13.60
2023-04-24T04:45:29.960Z,16.30
2023-04-24T04:48:50.967Z,11.30
2023-04-24T04:51:54.616Z,16.10
2023-04-24T04:54:57.944Z,16.10
2023-04-24T04:58:04.589Z,10.20
2023-04-24T05:01:07.782Z,12.60
2023-04-24T05:04:14.601Z,10.30
2023-04-24T05:07:20.291Z,9.80
2023-04-24T05:10:24.481Z,9.50
2023-04-24T05:13:39.265Z,7.40
2023-04-24T05:17:05.663Z,5.70
2023-04-24T05:20:08.949Z,8.50
2023-04-24T05:23:12.370Z,9.20
2023-04-24T05:26:16.125Z,8.70
2023-04-24T05:29:19.629Z,6.20
2023-04-24T05:32:23.248Z,6.60
2023-04-24T05:35:25.603Z,10.30
2023-04-24T05:38:27.687Z,9.20
2023-04-24T05:41:31.380Z,5.90
2023-04-24T05:44:33.423Z,8.00
2023-04-24T05:47:36.234Z,4.80
2023-04-24T05:50:38.146Z,8.50
2023-04-24T05:53:40.238Z,16.10
2023-04-24T05:56:43.888Z,9.50
2023-04-24T05:59:47.802Z,4.30
2023-04-24T06:04:57.119Z,8.30
2023-04-24T06:08:00.743Z,7.20
2023-04-24T06:11:07.205Z,6.00
2023-04-24T06:14:09.263Z,5.70
2023-04-24T06:17:12.502Z,10.60
2023-04-24T06:20:16.041Z,8.30
2023-04-24T06:28:37.755Z,6.70
2023-04-24T06:31:40.768Z,6.40
2023-04-24T06:34:42.888Z,6.40
2023-04-24T06:37:46.493Z,7.10
2023-04-24T06:40:48.560Z,5.90
2023-04-24T06:43:50.741Z,4.10
2023-04-24T06:46:52.679Z,6.20
2023-04-24T06:49:56.208Z,5.80
2023-04-24T06:52:58.174Z,7.20
2023-04-24T06:56:05.593Z,5.20
2023-04-24T06:59:09.064Z,3.80
2023-04-24T07:02:15.280Z,3.60
2023-04-24T07:05:22.114Z,8.00
2023-04-24T07:08:27.748Z,11.20
2023-04-24T07:11:31.152Z,3.10
2023-04-24T07:14:33.764Z,8.20
2023-04-24T07:17:36.625Z,4.10
2023-04-24T07:20:40.253Z,6.20
2023-04-24T07:23:45.812Z,4.60
2023-04-24T07:26:48.614Z,6.00
2023-04-24T07:29:51.743Z,4.40
2023-04-24T07:32:57.165Z,3.20
2023-04-24T07:35:59.998Z,6.90
2023-04-24T07:39:01.982Z,5.50
2023-04-24T07:42:04.867Z,3.30
2023-04-24T07:45:07.343Z,4.40
2023-04-24T07:48:10.981Z,3.10
2023-04-24T07:51:14.456Z,4.90
2023-04-24T07:54:18.485Z,5.00
2023-04-24T07:57:20.517Z,5.50
2023-04-24T08:00:25.609Z,6.30
2023-04-24T08:03:28.848Z,6.50
2023-04-24T08:06:34.914Z,3.50
2023-04-24T08:09:36.834Z,5.30
2023-04-24T08:12:38.976Z,2.50
2023-04-24T08:15:42.795Z,5.50
2023-04-24T08:18:48.319Z,7.50
2023-04-24T08:21:50.487Z,6.80
2023-04-24T08:24:56.540Z,2.90
2023-04-24T08:27:58.380Z,2.80
2023-04-24T08:31:00.277Z,3.80
2023-04-24T08:34:02.657Z,4.30
2023-04-24T08:37:04.995Z,6.90
2023-04-24T08:40:16.155Z,5.10
2023-04-24T08:43:19.336Z,2.50
2023-04-24T08:46:22.314Z,9.60
2023-04-24T08:49:26.570Z,7.60
2023-04-24T08:52:29.108Z,3.40
2023-04-24T08:55:31.375Z,3.30
2023-04-24T08:58:36.089Z,3.80
2023-04-24T09:01:40.437Z,7.20
2023-04-24T09:04:44.674Z,4.60
2023-04-24T09:07:56.843Z,3.50
2023-04-24T09:11:00.251Z,3.80
2023-04-24T09:14:02.612Z,3.60
2023-04-24T09:17:07.918Z,3.80
2023-04-24T09:20:10.340Z,8.10
2023-04-24T09:23:19.782Z,4.70
2023-04-24T09:26:23.262Z,4.10
2023-04-24T09:29:25.530Z,2.80
2023-04-24T09:32:30.367Z,4.00
2023-04-24T09:35:32.799Z,4.80
2023-04-24T09:38:39.214Z,5.30
2023-04-24T09:41:58.287Z,4.70
2023-04-24T09:45:11.961Z,6.10
2023-04-24T09:48:17.365Z,4.50
2023-04-24T09:51:36.018Z,4.60
2023-04-24T09:54:40.697Z,5.50
2023-04-24T09:58:00.728Z,3.50
2023-04-24T10:05:15.732Z,6.90
2023-04-24T10:08:18.604Z,4.60
2023-04-24T10:11:20.551Z,2.70
2023-04-24T10:14:26.041Z,5.00
2023-04-24T10:17:29.126Z,3.40
2023-04-24T10:20:33.219Z,3.80
2023-04-24T10:23:36.475Z,5.20
2023-04-24T10:26:42.449Z,3.80
2023-04-24T10:29:48.346Z,4.90
2023-04-24T10:32:50.441Z,3.10
2023-04-24T10:35:53.415Z,2.80
2023-04-24T10:38:58.359Z,3.40
2023-04-24T10:42:00.219Z,2.70
2023-04-24T10:45:19.022Z,5.20
2023-04-24T10:48:28.036Z,4.40
2023-04-24T10:51:48.486Z,3.20
2023-04-24T10:54:52.145Z,3.60
2023-04-24T10:58:05.616Z,4.90
2023-04-24T11:01:08.122Z,5.30
2023-04-24T11:04:11.050Z,2.90
2023-04-24T11:07:13.985Z,4.80
2023-04-24T11:10:28.160Z,4.10
2023-04-24T11:14:00.874Z,4.60
2023-04-24T11:17:04.514Z,5.60
2023-04-24T11:20:25.730Z,3.50
2023-04-24T11:23:37.677Z,2.90
2023-04-24T11:26:40.147Z,4.00
2023-04-24T11:30:01.742Z,7.50
2023-04-24T11:33:06.941Z,2.90
2023-04-24T11:36:13.711Z,4.90
2023-04-24T11:39:15.893Z,4.10
2023-04-24T11:42:21.794Z,5.50
2023-04-24T11:45:26.449Z,4.20
2023-04-24T11:48:29.424Z,8.00
2023-04-24T11:51:47.886Z,6.70
2023-04-24T11:54:53.640Z,4.10
2023-04-24T11:58:01.112Z,3.20
2023-04-24T12:01:03.798Z,4.50
2023-04-24T12:04:07.955Z,6.30
2023-04-24T12:07:10.880Z,3.70
2023-04-24T12:10:15.216Z,2.60
2023-04-24T12:13:17.473Z,4.40
2023-04-24T12:16:21.392Z,5.00
2023-04-24T12:19:25.708Z,3.10
2023-04-24T12:22:27.589Z,1.80
2023-04-24T12:25:32.222Z,3.20
2023-04-24T12:28:38.946Z,3.00
2023-04-24T12:31:41.058Z,1.90
2023-04-24T12:34:44.063Z,2.80
2023-04-24T12:37:47.469Z,2.30
2023-04-24T12:41:04.795Z,2.30
2023-04-24T12:44:13.623Z,1.90
2023-04-24T12:47:15.768Z,3.50
2023-04-24T12:50:18.363Z,2.70
2023-04-24T12:53:21.805Z,2.00
2023-04-24T12:56:26.029Z,4.60
2023-04-24T12:59:28.248Z,3.10
2023-04-24T13:02:31.867Z,3.90
2023-04-24T13:05:34.138Z,4.10
2023-04-24T13:08:36.803Z,5.40
2023-04-24T13:11:39.537Z,5.30
2023-04-24T13:14:43.134Z,3.00
2023-04-24T13:17:47.544Z,3.10
2023-04-24T13:20:51.785Z,3.40
2023-04-24T13:23:53.753Z,5.20
2023-04-24T13:26:57.119Z,4.70
2023-04-24T13:29:59.024Z,5.70
2023-04-24T13:33:01.729Z,2.30
2023-04-24T13:36:03.874Z,4.20
2023-04-24T13:39:07.830Z,3.20
2023-04-24T13:42:11.260Z,4.30
2023-04-24T13:45:24.604Z,3.80
2023-04-24T13:48:28.466Z,4.90
2023-04-24T13:51:32.020Z,3.90
2023-04-24T13:54:34.195Z,4.70
2023-04-24T13:57:38.507Z,3.00
2023-04-24T14:00:42.174Z,6.70
2023-04-24T14:04:58.019Z,4.60
2023-04-24T14:08:02.094Z,3.20
2023-04-24T14:11:05.996Z,4.00
2023-04-24T14:14:09.620Z,3.80
2023-04-24T14:17:17.113Z,3.70
2023-04-24T14:20:19.367Z,3.30
2023-04-24T14:23:22.625Z,3.60
2023-04-24T14:26:25.803Z,4.20
2023-04-24T14:29:28.255Z,4.20
2023-04-24T14:32:34.027Z,5.80
2023-04-24T14:39:55.673Z,3.60
2023-04-24T14:43:10.370Z,4.30
2023-04-24T14:46:13.557Z,4.50
2023-04-24T14:49:16.531Z,7.70
2023-04-24T14:52:19.032Z,6.00
2023-04-24T14:55:21.845Z,5.70
2023-04-24T14:58:23.778Z,5.40
2023-04-24T15:01:26.684Z,3.50
2023-04-24T15:04:31.733Z,4.20
2023-04-24T15:07:33.914Z,6.70
2023-04-24T15:10:37.617Z,7.10
2023-04-24T15:13:40.594Z,6.40
2023-04-24T15:16:45.033Z,4.50
2023-04-24T15:19:47.054Z,3.50
2023-04-24T15:22:51.649Z,5.00
2023-04-24T15:25:54.322Z,4.30
2023-04-24T15:28:57.277Z,4.60
2023-04-24T15:31:59.432Z,6.10
2023-04-24T15:35:08.610Z,6.10
2023-04-24T15:38:12.634Z,5.10
2023-04-24T15:41:15.572Z,4.20
2023-04-24T15:44:17.740Z,5.00
2023-04-24T15:47:20.775Z,3.10
2023-04-24T15:50:27.474Z,4.90
2023-04-24T15:53:29.641Z,5.30
2023-04-24T15:56:32.012Z,5.10
2023-04-24T15:59:38.128Z,4.50
2023-04-24T16:02:40.564Z,4.20
2023-04-24T16:05:44.287Z,4.20
2023-04-24T16:08:48.318Z,6.90
2023-04-24T16:11:51.286Z,7.10
2023-04-24T16:14:54.461Z,5.70
2023-04-24T16:17:58.038Z,5.70
2023-04-24T16:21:00.593Z,9.50
2023-04-24T16:24:03.527Z,4.60
2023-04-24T16:27:05.566Z,5.50
2023-04-24T16:30:09.825Z,5.70
2023-04-24T16:33:11.952Z,2.70
2023-04-24T16:36:16.714Z,4.10
2023-04-24T16:39:18.651Z,3.50
2023-04-24T16:42:23.258Z,6.10
2023-04-24T16:45:28.254Z,6.80
2023-04-24T16:48:34.670Z,7.30
2023-04-24T16:51:38.836Z,4.00
2023-04-24T16:54:43.813Z,8.50
2023-04-24T16:57:45.835Z,5.10
2023-04-24T17:00:51.556Z,3.50
2023-04-24T17:03:54.575Z,5.60
2023-04-24T17:06:57.023Z,3.50
2023-04-24T17:10:05.554Z,8.20
2023-04-24T17:13:11.823Z,15.70
2023-04-24T17:16:14.250Z,6.90
2023-04-24T17:19:16.672Z,5.30
2023-04-24T17:22:19.181Z,8.50
2023-04-24T17:25:21.321Z,8.00
2023-04-24T17:28:25.456Z,11.20
2023-04-24T17:31:28.667Z,9.40
2023-04-24T17:34:31.620Z,8.20
2023-04-24T17:37:36.961Z,8.30
2023-04-24T17:40:40.220Z,8.80
2023-04-24T17:43:45.086Z,8.50
2023-04-24T17:46:47.796Z,14.30
2023-04-24T17:49:49.848Z,9.40
2023-04-24T17:52:53.775Z,10.00
2023-04-24T17:55:59.385Z,8.70
2023-04-24T17:59:05.750Z,13.80
2023-04-24T18:05:15.328Z,7.50
2023-04-24T18:08:24.036Z,7.30
2023-04-24T18:11:27.106Z,8.00
2023-04-24T18:14:41.139Z,9.00
2023-04-24T18:17:49.185Z,7.90
2023-04-24T18:23:59.866Z,11.20
2023-04-24T18:27:02.470Z,18.30
2023-04-24T18:30:07.310Z,16.00
2023-04-24T18:33:09.489Z,18.50
2023-04-24T18:36:12.636Z,15.20
2023-04-24T18:39:15.736Z,16.20
2023-04-24T18:42:18.983Z,11.40
2023-04-24T18:45:21.950Z,9.40
2023-04-24T18:48:26.103Z,12.10
2023-04-24T18:51:28.342Z,8.90
2023-04-24T18:54:31.340Z,7.10
2023-04-24T18:57:35.128Z,7.70
2023-04-24T19:00:39.021Z,6.30
2023-04-24T19:03:41.007Z,5.70
2023-04-24T19:06:43.112Z,7.90
2023-04-24T19:09:46.877Z,7.00
2023-04-24T19:12:55.915Z,5.80
2023-04-24T19:16:00.360Z,6.00
2023-04-24T19:19:05.822Z,6.90
2023-04-24T19:22:10.591Z,4.90
2023-04-24T19:25:13.772Z,8.50
2023-04-24T19:28:19.815Z,7.40
2023-04-24T19:31:25.385Z,5.60
2023-04-24T19:34:28.865Z,6.60
2023-04-24T19:37:31.845Z,4.50
2023-04-24T19:40:34.642Z,7.00
2023-04-24T19:43:36.809Z,5.10
2023-04-24T19:46:39.495Z,12.10
2023-04-24T19:49:41.568Z,7.60
2023-04-24T19:52:44.909Z,4.80
2023-04-24T19:55:48.216Z,5.70
2023-04-24T19:58:51.819Z,5.60
2023-04-24T20:01:55.485Z,6.10
2023-04-24T20:04:57.575Z,13.00
2023-04-24T20:08:02.017Z,6.70
2023-04-24T20:11:05.843Z,6.70
2023-04-24T20:14:08.133Z,6.10
2023-04-24T20:17:11.024Z,6.70
2023-04-24T20:20:14.788Z,5.70
2023-04-24T20:23:20.319Z,6.40
2023-04-24T20:26:23.044Z,4.30
2023-04-24T20:29:25.995Z,4.20
2023-04-24T20:32:29.126Z,4.50
2023-04-24T20:35:34.999Z,7.50
2023-04-24T20:38:37.343Z,8.40
2023-04-24T20:41:40.163Z,4.40
2023-04-24T20:44:42.108Z,4.40
2023-04-24T20:47:44.406Z,5.70
2023-04-24T20:50:49.632Z,6.50
2023-04-24T20:53:52.715Z,5.20
2023-04-24T20:56:55.032Z,6.80
2023-04-24T20:59:56.972Z,6.00
2023-04-24T21:02:59.087Z,7.60
2023-04-24T21:06:01.258Z,6.30
2023-04-24T21:09:05.503Z,5.50
2023-04-24T21:12:09.400Z,7.20
2023-04-24T21:15:11.347Z,8.30
2023-04-24T21:18:14.199Z,7.80
2023-04-24T21:21:16.172Z,5.90
2023-04-24T21:24:19.251Z,5.50
2023-04-24T21:27:21.480Z,5.20
2023-04-24T21:30:24.648Z,4.80
2023-04-24T21:33:27.999Z,5.90
2023-04-24T21:36:32.698Z,6.50
2023-04-24T21:39:35.971Z,7.10
2023-04-24T21:42:39.083Z,6.30
2023-04-24T21:45:41.454Z,6.70
2023-04-24T21:48:43.293Z,4.30
2023-04-24T21:51:45.722Z,6.00
2023-04-24T21:54:47.776Z,6.80
2023-04-24T21:57:50.020Z,6.80
2023-04-24T22:05:16.865Z,6.20
2023-04-24T22:08:19.990Z,5.40
2023-04-24T22:11:26.607Z,5.00
2023-04-24T22:14:29.352Z,6.10
2023-04-24T22:17:31.300Z,5.60
2023-04-24T22:20:33.615Z,8.10
2023-04-24T22:23:36.014Z,5.00
2023-04-24T22:26:37.895Z,5.40
2023-04-24T22:29:40.046Z,5.70
2023-04-24T22:32:43.331Z,5.90
2023-04-24T22:35:45.166Z,8.00
2023-04-24T22:38:47.256Z,5.20
2023-04-24T22:41:49.233Z,5.30
2023-04-24T22:44:51.327Z,6.00
2023-04-24T22:47:54.413Z,7.70
2023-04-24T22:50:56.746Z,5.10
2023-04-24T22:54:03.812Z,8.70
2023-04-24T22:57:06.718Z,4.40
2023-04-24T23:00:46.780Z,5.20
2023-04-24T23:03:48.979Z,5.30
2023-04-24T23:06:51.279Z,4.70
2023-04-24T23:09:53.226Z,5.40
2023-04-24T23:12:55.238Z,4.40
2023-04-24T23:15:57.156Z,4.80
2023-04-24T23:18:59.063Z,10.10
2023-04-24T23:22:02.032Z,6.60
2023-04-24T23:25:04.382Z,4.70
2023-04-24T23:28:06.437Z,7.70
2023-04-24T23:31:09.217Z,4.90
2023-04-24T23:34:11.140Z,6.60
2023-04-24T23:37:13.043Z,4.50
2023-04-24T23:40:15.122Z,4.40
2023-04-24T23:43:17.676Z,5.30
2023-04-24T23:46:21.103Z,4.10
2023-04-24T23:49:23.244Z,5.20
2023-04-24T23:52:26.457Z,4.10
2023-04-24T23:55:29.241Z,5.30
2023-04-24T23:58:31.598Z,4.30
